createdAt,value
2022-12-06T00:01:25.650Z,101292.91
2022-12-06T00:03:57.712Z,101287.66
2022-12-06T00:06:29.637Z,101285.03
2022-12-06T00:08:59.728Z,101292.03
2022-12-06T00:11:29.373Z,101279.88
2022-12-06T00:13:58.562Z,101289.50
2022-12-06T00:16:27.256Z,101288.69
2022-12-06T00:18:55.405Z,101285.22
2022-12-06T00:21:25.732Z,101287.91
2022-12-06T00:23:56.330Z,101287.91
2022-12-06T00:26:25.400Z,101289.59
2022-12-06T00:28:54.743Z,101291.38
2022-12-06T00:31:28.579Z,101281.75
2022-12-06T00:33:56.751Z,101286.13
2022-12-06T00:36:28.726Z,101289.59
2022-12-06T00:39:00.385Z,101287.84
2022-12-06T00:41:29.741Z,101285.22
2022-12-06T00:43:57.595Z,101272.13
2022-12-06T00:46:28.037Z,101277.31
2022-12-06T00:48:57.362Z,101281.63
2022-12-06T00:51:27.483Z,101286.88
2022-12-06T00:53:55.591Z,101284.25
2022-12-06T00:56:26.108Z,101279.88
2022-12-06T00:58:55.777Z,101285.22
2022-12-06T01:01:25.635Z,101282.56
2022-12-06T01:03:59.556Z,101285.19
2022-12-06T01:06:29.087Z,101287.72
2022-12-06T01:08:57.717Z,101291.19
2022-12-06T01:11:30.569Z,101284.19
2022-12-06T01:14:00.691Z,101285.94
2022-12-06T01:16:31.272Z,101290.28
2022-12-06T01:19:00.813Z,101287.66
2022-12-06T01:21:29.513Z,101287.66
2022-12-06T01:23:57.682Z,101288.50
2022-12-06T01:26:27.118Z,101278.88
2022-12-06T01:28:56.322Z,101278.03
2022-12-06T01:31:24.636Z,101282.34
2022-12-06T01:33:52.289Z,101279.72
2022-12-06T01:36:21.346Z,101279.72
2022-12-06T01:38:53.551Z,101286.72
2022-12-06T01:41:24.761Z,101286.81
2022-12-06T01:43:57.690Z,101280.63
2022-12-06T01:46:32.562Z,101283.25
2022-12-06T01:49:11.186Z,101271.09
2022-12-06T01:51:43.544Z,101281.56
2022-12-06T01:54:14.501Z,101279.78
2022-12-06T01:57:11.034Z,101273.69
2022-12-06T01:59:40.475Z,101274.56
2022-12-06T02:02:09.566Z,101279.78
2022-12-06T02:04:39.718Z,101273.69
2022-12-06T02:07:08.892Z,101274.56
2022-12-06T02:09:37.817Z,101270.16
2022-12-06T02:12:08.562Z,101271.84
2022-12-06T02:14:44.566Z,101271.94
2022-12-06T02:17:27.536Z,101264.91
2022-12-06T02:20:06.008Z,101265.78
2022-12-06T02:23:01.558Z,101262.28
2022-12-06T02:25:52.649Z,101254.44
2022-12-06T02:28:40.560Z,101253.47
2022-12-06T02:31:18.204Z,101257.78
2022-12-06T02:33:50.303Z,101254.25
2022-12-06T02:36:20.214Z,101252.47
2022-12-06T02:38:52.072Z,101246.31
2022-12-06T02:41:24.665Z,101248.94
2022-12-06T02:43:57.630Z,101248.09
2022-12-06T02:46:33.856Z,101241.22
2022-12-06T02:49:06.549Z,101239.56
2022-12-06T02:51:36.949Z,101238.72
2022-12-06T02:54:08.727Z,101244.88
2022-12-06T02:56:40.979Z,101239.63
2022-12-06T02:59:08.572Z,101238.72
2022-12-06T03:01:44.689Z,101235.25
2022-12-06T03:04:46.351Z,101236.94
2022-12-06T03:07:32.873Z,101237.78
2022-12-06T03:10:17.627Z,101234.31
2022-12-06T03:12:53.968Z,101237.78
2022-12-06T03:15:34.106Z,101243.88
2022-12-06T03:18:10.449Z,101238.59
2022-12-06T03:20:45.374Z,101245.53
2022-12-06T03:23:17.526Z,101247.22
2022-12-06T03:25:49.640Z,101244.53
2022-12-06T03:28:19.676Z,101253.22
2022-12-06T03:30:51.137Z,101251.44
2022-12-06T03:33:23.120Z,101247.06
2022-12-06T03:35:55.625Z,101251.38
2022-12-06T03:38:28.971Z,101254.00
2022-12-06T03:41:01.022Z,101246.13
2022-12-06T03:43:28.695Z,101241.81
2022-12-06T03:46:03.985Z,101247.06
2022-12-06T03:48:37.629Z,101243.50
2022-12-06T03:51:08.679Z,101240.03
2022-12-06T03:53:46.651Z,101240.88
2022-12-06T03:56:14.560Z,101238.25
2022-12-06T03:58:42.129Z,101228.78
2022-12-06T04:01:09.838Z,101227.03
2022-12-06T04:03:39.055Z,101226.16
2022-12-06T04:06:07.770Z,101228.78
2022-12-06T04:08:35.567Z,101229.63
2022-12-06T04:11:04.564Z,101226.16
2022-12-06T04:13:36.522Z,101233.94
2022-12-06T04:16:25.010Z,101233.94
2022-12-06T04:18:53.430Z,101235.66
2022-12-06T04:21:39.531Z,101225.16
2022-12-06T04:24:08.151Z,101234.72
2022-12-06T04:26:36.569Z,101234.72
2022-12-06T04:29:28.162Z,101239.88
2022-12-06T04:32:14.410Z,101232.94
2022-12-06T04:35:01.516Z,101228.56
2022-12-06T04:37:46.616Z,101227.66
2022-12-06T04:40:14.153Z,101224.13
2022-12-06T04:43:00.575Z,101222.34
2022-12-06T04:45:29.060Z,101222.41
2022-12-06T04:47:58.039Z,101224.16
2022-12-06T04:50:26.907Z,101220.69
2022-12-06T04:52:55.106Z,101221.53
2022-12-06T04:55:23.562Z,101221.63
2022-12-06T04:57:52.627Z,101224.16
2022-12-06T05:00:21.535Z,101215.44
2022-12-06T05:02:49.048Z,101217.19
2022-12-06T05:05:18.142Z,101218.88
2022-12-06T05:07:47.076Z,101217.19
2022-12-06T05:10:14.693Z,101211.94
2022-12-06T05:12:42.278Z,101219.81
2022-12-06T05:15:15.790Z,101214.59
2022-12-06T05:17:43.839Z,101214.66
2022-12-06T05:20:14.110Z,101209.50
2022-12-06T05:22:42.174Z,101213.91
2022-12-06T05:25:11.747Z,101209.59
2022-12-06T05:27:39.663Z,101212.06
2022-12-06T05:30:13.538Z,101214.59
2022-12-06T05:32:45.646Z,101209.34
2022-12-06T05:35:13.905Z,101215.53
2022-12-06T05:37:41.458Z,101211.13
2022-12-06T05:40:11.696Z,101214.59
2022-12-06T05:42:41.651Z,101210.22
2022-12-06T05:45:10.599Z,101211.97
2022-12-06T05:47:40.557Z,101208.44
2022-12-06T05:50:13.543Z,101202.31
2022-12-06T05:53:10.556Z,101201.38
2022-12-06T05:55:39.642Z,101189.97
2022-12-06T05:58:12.077Z,101195.13
2022-12-06T06:00:40.249Z,101198.59
2022-12-06T06:03:08.250Z,101194.22
2022-12-06T06:05:37.546Z,101195.94
2022-12-06T06:08:05.632Z,101198.50
2022-12-06T06:10:33.632Z,101187.94
2022-12-06T06:13:04.251Z,101197.50
2022-12-06T06:15:32.260Z,101189.59
2022-12-06T06:17:59.817Z,101198.28
2022-12-06T06:20:27.388Z,101198.22
2022-12-06T06:22:56.544Z,101193.81
2022-12-06T06:25:24.945Z,101192.91
2022-12-06T06:27:54.833Z,101195.53
2022-12-06T06:30:24.559Z,101199.84
2022-12-06T06:33:19.074Z,101193.81
2022-12-06T06:35:50.048Z,101196.53
2022-12-06T06:38:17.601Z,101192.13
2022-12-06T06:40:46.072Z,101195.59
2022-12-06T06:43:20.966Z,101192.91
2022-12-06T06:45:54.593Z,101198.06
2022-12-06T06:48:23.627Z,101205.03
2022-12-06T06:50:56.968Z,101202.41
2022-12-06T06:53:27.767Z,101204.13
2022-12-06T06:55:55.963Z,101211.06
2022-12-06T06:58:23.923Z,101201.50
2022-12-06T07:00:55.307Z,101207.50
2022-12-06T07:03:24.580Z,101210.06
2022-12-06T07:05:54.544Z,101212.63
2022-12-06T07:08:25.639Z,101215.25
2022-12-06T07:10:54.212Z,101209.94
2022-12-06T07:13:24.196Z,101208.16
2022-12-06T07:15:52.620Z,101206.41
2022-12-06T07:18:21.965Z,101202.84
2022-12-06T07:20:50.170Z,101206.28
2022-12-06T07:26:13.575Z,101212.22
2022-12-06T07:29:07.781Z,101209.50
2022-12-06T07:31:35.644Z,101208.63
2022-12-06T07:34:04.639Z,101208.53
2022-12-06T07:36:33.032Z,101221.50
2022-12-06T07:39:01.340Z,101215.28
2022-12-06T07:41:48.442Z,101217.84
2022-12-06T07:44:55.592Z,101221.22
2022-12-06T07:47:38.792Z,101223.84
2022-12-06T07:50:14.500Z,101221.97
2022-12-06T07:52:47.579Z,101216.56
2022-12-06T07:55:16.271Z,101225.88
2022-12-06T08:00:37.568Z,101226.16
2022-12-06T08:03:05.159Z,101227.66
2022-12-06T08:05:34.565Z,101225.69
2022-12-06T08:08:02.697Z,101233.28
2022-12-06T08:10:30.624Z,101232.06
2022-12-06T08:12:58.134Z,101232.53
2022-12-06T08:15:26.029Z,101233.19
2022-12-06T08:17:53.603Z,101233.75
2022-12-06T08:20:21.112Z,101234.38
2022-12-06T08:22:50.550Z,101239.13
2022-12-06T08:25:20.959Z,101240.38
2022-12-06T08:27:48.617Z,101241.69
2022-12-06T08:30:20.182Z,101238.78
2022-12-06T08:32:49.560Z,101234.91
2022-12-06T08:35:43.549Z,101238.88
2022-12-06T08:38:12.657Z,101242.91
2022-12-06T08:43:33.603Z,101236.09
2022-12-06T08:46:06.556Z,101243.66
2022-12-06T08:48:39.778Z,101248.69
2022-12-06T08:51:10.257Z,101247.63
2022-12-06T08:53:39.250Z,101251.78
2022-12-06T08:56:07.565Z,101250.63
2022-12-06T08:58:35.179Z,101251.22
2022-12-06T09:01:10.751Z,101253.63
2022-12-06T09:03:38.663Z,101262.28
2022-12-06T09:06:09.080Z,101262.06
2022-12-06T09:08:40.055Z,101255.72
2022-12-06T09:11:09.061Z,101263.44
2022-12-06T09:13:41.630Z,101260.66
2022-12-06T09:16:15.699Z,101265.75
2022-12-06T09:18:48.355Z,101257.69
2022-12-06T09:21:18.728Z,101256.63
2022-12-06T09:23:49.880Z,101262.66
2022-12-06T09:26:18.191Z,101257.28
2022-12-06T09:28:49.512Z,101263.25
2022-12-06T09:31:19.458Z,101254.34
2022-12-06T09:33:52.819Z,101258.59
2022-12-06T09:36:23.429Z,101261.16
2022-12-06T09:38:56.381Z,101258.31
2022-12-06T09:41:53.148Z,101262.50
2022-12-06T09:44:41.680Z,101266.75
2022-12-06T09:47:22.344Z,101265.75
2022-12-06T09:50:05.230Z,101265.66
2022-12-06T09:52:44.544Z,101262.09
2022-12-06T09:55:31.564Z,101259.31
2022-12-06T09:58:39.283Z,101257.53
2022-12-06T10:01:18.820Z,101261.84
2022-12-06T10:03:59.638Z,101264.34
2022-12-06T10:06:35.822Z,101261.59
2022-12-06T10:09:19.686Z,101265.00
2022-12-06T10:12:07.547Z,101257.94
2022-12-06T10:14:53.793Z,101258.72
2022-12-06T10:17:33.672Z,101255.16
2022-12-06T10:20:12.969Z,101242.66
2022-12-06T10:22:55.556Z,101245.03
2022-12-06T10:25:27.516Z,101242.31
2022-12-06T10:28:06.608Z,101237.91
2022-12-06T10:30:41.155Z,101230.78
2022-12-06T10:33:21.133Z,101228.03
2022-12-06T10:35:54.753Z,101239.28
2022-12-06T10:38:31.537Z,101231.38
2022-12-06T10:41:10.502Z,101226.84
2022-12-06T10:44:12.404Z,101222.44
2022-12-06T10:47:06.523Z,101222.28
2022-12-06T10:49:42.789Z,101219.53
2022-12-06T10:52:23.989Z,101223.72
2022-12-06T10:54:59.577Z,101214.03
2022-12-06T10:57:37.208Z,101216.47
2022-12-06T11:00:15.901Z,101214.63
2022-12-06T11:02:53.384Z,101210.84
2022-12-06T11:05:28.035Z,101212.47
2022-12-06T11:08:25.863Z,101210.69
2022-12-06T11:10:56.614Z,101216.72
2022-12-06T11:13:39.297Z,101212.28
2022-12-06T11:16:13.493Z,101207.81
2022-12-06T11:18:41.773Z,101210.44
2022-12-06T11:21:41.119Z,101202.78
2022-12-06T11:24:16.160Z,101206.38
2022-12-06T11:26:48.568Z,101195.72
2022-12-06T11:29:17.444Z,101193.00
2022-12-06T11:31:49.693Z,101192.00
2022-12-06T11:34:23.554Z,101202.34
2022-12-06T11:36:59.658Z,101189.00
2022-12-06T11:39:29.243Z,101180.88
2022-12-06T11:41:59.436Z,101180.72
2022-12-06T11:44:33.085Z,101185.06
2022-12-06T11:47:03.505Z,101182.44
2022-12-06T11:49:36.400Z,101186.75
2022-12-06T11:52:08.481Z,101184.00
2022-12-06T11:54:44.725Z,101194.41
2022-12-06T11:57:22.669Z,101187.34
2022-12-06T12:00:11.174Z,101188.19
2022-12-06T12:02:45.338Z,101181.03
2022-12-06T12:05:20.115Z,101185.34
2022-12-06T12:07:51.703Z,101185.19
2022-12-06T12:10:40.981Z,101181.59
2022-12-06T12:13:38.047Z,101184.06
2022-12-06T12:16:14.800Z,101181.59
2022-12-06T12:18:52.309Z,101186.03
2022-12-06T12:21:32.207Z,101180.66
2022-12-06T12:24:00.056Z,101189.50
2022-12-06T12:26:40.662Z,101185.19
2022-12-06T12:29:20.098Z,101184.81
2022-12-06T12:31:59.725Z,101189.28
2022-12-06T12:34:33.326Z,101185.91
2022-12-06T12:37:04.667Z,101183.16
2022-12-06T12:39:37.739Z,101179.53
2022-12-06T12:42:06.264Z,101174.06
2022-12-06T12:44:39.270Z,101177.44
2022-12-06T12:47:18.622Z,101179.91
2022-12-06T12:50:20.241Z,101181.59
2022-12-06T12:52:48.555Z,101179.66
2022-12-06T12:55:20.442Z,101178.03
2022-12-06T12:57:50.418Z,101181.59
2022-12-06T13:00:19.797Z,101173.78
2022-12-06T13:02:52.660Z,101179.44
2022-12-06T13:05:35.564Z,101184.81
2022-12-06T13:08:12.900Z,101179.69
2022-12-06T13:10:43.890Z,101172.53
2022-12-06T13:13:17.544Z,101168.97
2022-12-06T13:15:48.548Z,101171.41
2022-12-06T13:18:21.810Z,101169.72
2022-12-06T13:20:54.364Z,101172.38
2022-12-06T13:23:26.031Z,101169.63
2022-12-06T13:26:02.593Z,101170.66
2022-12-06T13:28:34.621Z,101168.19
2022-12-06T13:31:06.281Z,101164.97
2022-12-06T13:33:37.137Z,101173.94
2022-12-06T13:36:10.662Z,101168.81
2022-12-06T13:38:39.845Z,101171.66
2022-12-06T13:41:13.640Z,101170.03
2022-12-06T13:43:51.140Z,101166.91
2022-12-06T13:46:28.316Z,101170.66
2022-12-06T13:48:57.909Z,101168.19
2022-12-06T13:51:50.423Z,101166.84
2022-12-06T13:54:36.138Z,101166.94
2022-12-06T13:57:22.381Z,101171.63
2022-12-06T13:59:50.542Z,101171.63
2022-12-06T14:02:47.625Z,101161.94
2022-12-06T14:08:31.690Z,101167.88
2022-12-06T14:11:25.624Z,101166.84
2022-12-06T14:14:08.753Z,101166.66
2022-12-06T14:16:39.957Z,101164.81
2022-12-06T14:19:16.258Z,101167.25
2022-12-06T14:21:51.045Z,101163.75
2022-12-06T14:24:32.549Z,101168.09
2022-12-06T14:27:05.517Z,101168.03
2022-12-06T14:29:35.555Z,101162.75
2022-12-06T14:32:04.440Z,101153.81
2022-12-06T14:34:34.126Z,101149.50
2022-12-06T14:37:04.567Z,101156.53
2022-12-06T14:39:34.629Z,101152.03
2022-12-06T14:42:34.418Z,101153.81
2022-12-06T14:45:02.959Z,101147.69
2022-12-06T14:47:32.569Z,101152.13
2022-12-06T14:50:19.672Z,101147.69
2022-12-06T14:52:59.418Z,101142.41
2022-12-06T14:55:30.482Z,101140.72
2022-12-06T14:58:00.924Z,101145.16
2022-12-06T15:00:35.981Z,101149.50
2022-12-06T15:03:28.471Z,101143.38
2022-12-06T15:06:16.451Z,101146.94
2022-12-06T15:08:48.137Z,101143.47
2022-12-06T15:11:49.327Z,101146.16
2022-12-06T15:14:18.943Z,101148.91
2022-12-06T15:16:56.246Z,101141.84
2022-12-06T15:19:24.982Z,101137.50
2022-12-06T15:21:53.156Z,101140.25
2022-12-06T15:24:22.443Z,101142.94
2022-12-06T15:26:51.479Z,101134.28
2022-12-06T15:29:19.526Z,101128.25
2022-12-06T15:31:53.431Z,101138.91
2022-12-06T15:34:24.664Z,101135.47
2022-12-06T15:37:03.900Z,101133.88
2022-12-06T15:39:41.682Z,101128.78
2022-12-06T15:42:16.974Z,101135.09
2022-12-06T15:44:49.229Z,101129.13
2022-12-06T15:47:18.831Z,101134.66
2022-12-06T15:49:46.607Z,101135.59
2022-12-06T15:52:17.438Z,101137.56
2022-12-06T15:54:45.608Z,101137.72
2022-12-06T15:57:14.775Z,101135.28
2022-12-06T15:59:44.674Z,101134.50
2022-12-06T16:02:18.699Z,101132.91
2022-12-06T16:04:48.636Z,101130.44
2022-12-06T16:07:19.043Z,101127.97
2022-12-06T16:09:47.529Z,101129.06
2022-12-06T16:12:18.022Z,101130.16
2022-12-06T16:14:45.566Z,101126.97
2022-12-06T16:17:14.069Z,101129.00
2022-12-06T16:20:01.089Z,101133.66
2022-12-06T16:23:02.031Z,101133.16
2022-12-06T16:25:30.047Z,101125.59
2022-12-06T16:27:58.999Z,101131.94
2022-12-06T16:30:32.561Z,101129.56
2022-12-06T16:33:05.804Z,101133.31
2022-12-06T16:35:35.430Z,101135.16
2022-12-06T16:38:02.957Z,101137.13
2022-12-06T16:40:33.839Z,101130.22
2022-12-06T16:43:02.802Z,101126.84
2022-12-06T16:45:30.326Z,101127.78
2022-12-06T16:47:57.879Z,101119.09
2022-12-06T16:50:26.734Z,101118.25
2022-12-06T16:52:55.084Z,101115.69
2022-12-06T16:55:22.740Z,101114.00
2022-12-06T16:57:51.193Z,101110.53
2022-12-06T17:00:22.701Z,101108.84
2022-12-06T17:02:51.071Z,101107.97
2022-12-06T17:05:21.059Z,101107.97
2022-12-06T17:07:49.260Z,101091.41
2022-12-06T17:10:19.541Z,101104.47
2022-12-06T17:12:48.531Z,101088.69
2022-12-06T17:15:19.555Z,101088.78
2022-12-06T17:17:49.276Z,101097.53
2022-12-06T17:20:18.377Z,101082.59
2022-12-06T17:22:46.621Z,101084.38
2022-12-06T17:25:16.034Z,101086.00
2022-12-06T17:27:44.012Z,101084.22
2022-12-06T17:30:17.590Z,101083.38
2022-12-06T17:32:47.135Z,101091.19
2022-12-06T17:35:16.455Z,101078.88
2022-12-06T17:37:44.201Z,101078.78
2022-12-06T17:40:12.761Z,101080.56
2022-12-06T17:42:58.143Z,101076.16
2022-12-06T17:45:26.679Z,101077.94
2022-12-06T17:47:59.582Z,101071.84
2022-12-06T17:50:28.601Z,101074.47
2022-12-06T17:52:56.307Z,101075.31
2022-12-06T17:55:23.901Z,101064.88
2022-12-06T17:57:51.873Z,101071.94
2022-12-06T18:00:20.190Z,101066.66
2022-12-06T18:02:48.878Z,101065.81
2022-12-06T18:05:16.942Z,101065.81
2022-12-06T18:07:46.087Z,101073.63
2022-12-06T18:10:14.592Z,101074.47
2022-12-06T18:12:42.245Z,101076.16
2022-12-06T18:15:30.582Z,101078.69
2022-12-06T18:17:58.192Z,101071.69
2022-12-06T18:20:26.563Z,101071.59
2022-12-06T18:22:55.655Z,101076.75
2022-12-06T18:25:23.595Z,101063.59
2022-12-06T18:27:51.259Z,101066.09
2022-12-06T18:30:19.177Z,101063.38
2022-12-06T18:32:46.790Z,101068.53
2022-12-06T18:35:14.515Z,101068.63
2022-12-06T18:37:43.576Z,101071.16
2022-12-06T18:40:14.777Z,101065.81
2022-12-06T18:42:42.459Z,101071.84
2022-12-06T18:45:11.687Z,101061.25
2022-12-06T18:47:39.297Z,101062.09
2022-12-06T18:50:10.304Z,101054.94
2022-12-06T18:52:38.304Z,101061.00
2022-12-06T18:55:06.617Z,101059.03
2022-12-06T18:57:38.518Z,101054.59
2022-12-06T19:00:07.715Z,101058.03
2022-12-06T19:02:36.670Z,101047.41
2022-12-06T19:05:04.903Z,101051.63
2022-12-06T19:07:32.729Z,101041.03
2022-12-06T19:10:01.589Z,101040.94
2022-12-06T19:12:30.004Z,101042.53
2022-12-06T19:14:59.698Z,101038.16
2022-12-06T19:17:27.957Z,101037.22
2022-12-06T19:19:55.636Z,101033.66
2022-12-06T19:22:23.230Z,101032.63
2022-12-06T19:24:50.908Z,101036.03
2022-12-06T19:27:20.574Z,101024.56
2022-12-06T19:29:48.615Z,101027.94
2022-12-06T19:32:17.569Z,101032.25
2022-12-06T19:34:45.488Z,101027.78
2022-12-06T19:37:13.289Z,101033.03
2022-12-06T19:39:40.882Z,101028.44
2022-12-06T19:42:26.467Z,101032.84
2022-12-06T19:44:54.082Z,101032.75
2022-12-06T19:47:25.569Z,101031.84
2022-12-06T19:49:53.153Z,101029.97
2022-12-06T19:52:20.742Z,101033.28
2022-12-06T19:54:48.294Z,101034.13
2022-12-06T19:57:15.941Z,101031.31
2022-12-06T19:59:43.529Z,101034.88
2022-12-06T20:02:12.700Z,101034.44
2022-12-06T20:04:43.821Z,101023.06
2022-12-06T20:07:12.103Z,101026.47
2022-12-06T20:09:39.997Z,101022.78
2022-12-06T20:12:08.342Z,101026.16
2022-12-06T20:14:40.592Z,101017.31
2022-12-06T20:17:10.614Z,101022.53
2022-12-06T20:19:39.300Z,101023.28
2022-12-06T20:22:08.618Z,101016.06
2022-12-06T20:24:36.257Z,101023.03
2022-12-06T20:27:04.023Z,101013.22
2022-12-06T20:29:33.076Z,101019.28
2022-12-06T20:32:02.043Z,101006.84
2022-12-06T20:34:33.860Z,101005.91
2022-12-06T20:37:03.774Z,101011.91
2022-12-06T20:39:35.018Z,100999.59
2022-12-06T20:42:05.348Z,101004.69
2022-12-06T20:44:34.565Z,101002.81
2022-12-06T20:47:02.818Z,100995.84
2022-12-06T20:49:30.760Z,100997.38
2022-12-06T20:52:01.816Z,100999.16
2022-12-06T20:54:29.368Z,100994.63
2022-12-06T20:56:58.381Z,100988.63
2022-12-06T20:59:26.044Z,100993.78
2022-12-06T21:01:55.599Z,100989.25
2022-12-06T21:04:24.120Z,100986.56
2022-12-06T21:06:51.852Z,100991.84
2022-12-06T21:09:19.638Z,100984.84
2022-12-06T21:11:47.503Z,100985.50
2022-12-06T21:14:19.564Z,100992.56
2022-12-06T21:16:47.123Z,100981.75
2022-12-06T21:19:17.579Z,100980.91
2022-12-06T21:21:47.335Z,100979.13
2022-12-06T21:24:17.319Z,100982.50
2022-12-06T21:26:45.469Z,100982.41
2022-12-06T21:29:18.734Z,100979.59
2022-12-06T21:31:48.612Z,100977.91
2022-12-06T21:34:16.615Z,100978.66
2022-12-06T21:36:45.542Z,100976.88
2022-12-06T21:39:14.651Z,100974.97
2022-12-06T21:41:42.471Z,100967.84
2022-12-06T21:44:34.123Z,100968.59
2022-12-06T21:47:28.067Z,100975.53
2022-12-06T21:49:56.008Z,100978.84
2022-12-06T21:52:23.742Z,100969.16
2022-12-06T21:54:53.113Z,100967.47
2022-12-06T21:57:20.753Z,100971.78
2022-12-06T21:59:48.642Z,100976.78
2022-12-06T22:02:17.603Z,100968.88
2022-12-06T22:04:47.488Z,100966.25
2022-12-06T22:07:16.050Z,100966.03
2022-12-06T22:09:44.081Z,100979.16
2022-12-06T22:12:12.572Z,100975.63
2022-12-06T22:14:40.240Z,100970.09
2022-12-06T22:17:07.752Z,100967.34
2022-12-06T22:19:35.576Z,100972.44
2022-12-06T22:22:05.571Z,100965.59
2022-12-06T22:24:33.589Z,100975.19
2022-12-06T22:27:01.184Z,100976.88
2022-12-06T22:29:28.869Z,100973.28
2022-12-06T22:31:57.118Z,100971.50
2022-12-06T22:34:25.092Z,100971.38
2022-12-06T22:36:52.731Z,100974.81
2022-12-06T22:39:21.803Z,100970.38
2022-12-06T22:41:49.423Z,100971.00
2022-12-06T22:44:17.983Z,100977.22
2022-12-06T22:46:47.020Z,100973.47
2022-12-06T22:49:18.040Z,100979.59
2022-12-06T22:51:46.110Z,100967.25
2022-12-06T22:54:14.843Z,100960.94
2022-12-06T22:56:48.349Z,100962.75
2022-12-06T22:59:17.193Z,100953.66
2022-12-06T23:01:45.010Z,100952.09
2022-12-06T23:04:12.927Z,100953.78
2022-12-06T23:06:40.609Z,100961.69
2022-12-06T23:09:09.821Z,100952.81
2022-12-06T23:11:41.094Z,100955.34
2022-12-06T23:14:13.406Z,100950.94
2022-12-06T23:16:43.838Z,100945.75
2022-12-06T23:19:12.602Z,100935.09
2022-12-06T23:21:42.512Z,100933.53
2022-12-06T23:24:13.659Z,100941.31
2022-12-06T23:26:43.062Z,100948.59
2022-12-06T23:29:11.575Z,100955.47
2022-12-06T23:31:44.870Z,100956.41
2022-12-06T23:34:17.742Z,100958.22
2022-12-06T23:36:45.671Z,100952.19
2022-12-06T23:39:17.072Z,100947.94
2022-12-06T23:41:45.657Z,100952.19
2022-12-06T23:44:16.781Z,100952.47
2022-12-06T23:46:46.295Z,100956.13
2022-12-06T23:49:18.047Z,100959.72
2022-12-06T23:51:47.105Z,100960.66
2022-12-06T23:54:16.835Z,100954.44
2022-12-06T23:56:45.004Z,100946.53
2022-12-06T23:59:15.655Z,100952.66
